ΕΜΥ, Εθνική Μετεωρολογική Υπηρεσία - Δελτία Καιρού, Προγνώσεις

ΑΕΡΟΝΑΥΤΙΛΙΑ

GREEK AIRPORTS CODES

LGMG 201600Z 20008KT CAVOK 23/15 Q1011 RMK BKN200=

EUROPEAN AIRPORTS CODES

TAF LGMG 201000Z 2012/2021 29005G15KT 9999 FEW015 SCT050 TEMPO 2012/2015 19010KT=